Time;durP1;ratioP1;P1;durP2;ratioP2;P2;SDS_P1;SDS_P2;PMS_P1;PMS_P2;Temp;Humidity;BMP_temperature;BMP_pressure;BME280_temperature;BME280_humidity;BME280_pressure;Samples;Min_cycle;Max_cycle;Signal;HPM_P1;HPM_P2
2021/05/15 00:02:20;;;;;;;24.60;18.20;;;;;;;-144.99;nan;52378.78;4976898;28;20192;-79
2021/05/15 00:04:52;;;;;;;22.90;16.40;;;;;;;-144.99;nan;52446.06;4976614;28;20235;-79
2021/05/15 00:07:26;;;;;;;18.13;14.27;;;;;;;-144.99;nan;52415.47;4974171;28;20200;-79
2021/05/15 00:10:01;;;;;;;25.17;16.97;;;;;;;-144.99;nan;52403.25;4976363;28;20212;-79
2021/05/15 00:12:36;;;;;;;26.97;14.40;;;;;;;-144.99;nan;52378.78;4969708;28;20206;-77
2021/05/15 00:15:12;;;;;;;23.70;17.40;;;;;;;-144.99;nan;52425.66;4974801;28;20255;-78
2021/05/15 00:17:47;;;;;;;21.17;16.40;;;;;;;-144.99;nan;52433.81;4974403;28;20200;-77
2021/05/15 00:20:21;;;;;;;26.90;17.83;;;;;;;-144.99;nan;52399.19;4973885;28;20207;-78
2021/05/15 00:22:56;;;;;;;26.70;15.30;;;;;;;-144.99;nan;52407.31;4973898;28;20210;-80
2021/05/15 00:25:31;;;;;;;31.83;18.77;;;;;;;-144.99;nan;52448.09;4970299;28;20246;-78
2021/05/15 00:28:05;;;;;;;29.13;17.00;;;;;;;-144.99;nan;52448.09;4975927;28;21621;-78
2021/05/15 00:30:37;;;;;;;25.43;16.87;;;;;;;-144.99;nan;52431.78;4981300;28;20215;-79
2021/05/15 00:33:08;;;;;;;23.73;15.43;;;;;;;-144.99;nan;52386.94;4976218;28;20212;-78
2021/05/15 00:35:43;;;;;;;23.03;15.10;;;;;;;-144.99;nan;52407.31;4978317;28;20227;-79
2021/05/15 00:38:17;;;;;;;31.13;21.10;;;;;;;-144.99;nan;52431.78;4975611;28;20270;-79
2021/05/15 00:40:52;;;;;;;24.27;16.03;;;;;;;-144.99;nan;52411.41;4974993;28;20211;-78
2021/05/15 00:43:28;;;;;;;20.73;16.00;;;;;;;-144.99;nan;52415.47;4967944;28;20250;-79
2021/05/15 00:46:03;;;;;;;22.00;14.60;;;;;;;-144.99;nan;52386.94;4971900;28;20235;-78
2021/05/15 00:48:34;;;;;;;24.80;14.47;;;;;;;-144.99;nan;52419.56;4974275;28;20222;-76
2021/05/15 00:51:03;;;;;;;18.83;14.60;;;;;;;-144.99;nan;52417.53;4973818;28;20219;-78
2021/05/15 00:53:37;;;;;;;23.03;15.37;;;;;;;-144.99;nan;52380.84;4973491;28;20208;-79
2021/05/15 00:56:13;;;;;;;26.30;15.87;;;;;;;-144.99;nan;52401.22;4973383;28;20227;-77
2021/05/15 00:58:50;;;;;;;21.27;14.07;;;;;;;-144.99;nan;52431.78;4982190;28;20203;-79
2021/05/15 01:01:24;;;;;;;18.97;14.73;;;;;;;-144.99;nan;52437.91;4977955;28;20208;-78
2021/05/15 01:03:59;;;;;;;23.67;17.37;;;;;;;-144.99;nan;52374.72;4985376;28;20210;-77
2021/05/15 01:06:33;;;;;;;21.13;16.13;;;;;;;-144.99;nan;52423.63;4982449;28;20758;-78
2021/05/15 01:09:08;;;;;;;21.87;14.57;;;;;;;-144.99;nan;52395.09;4982862;28;20207;-77
2021/05/15 01:11:43;;;;;;;22.83;17.60;;;;;;;-144.99;nan;52415.47;4982278;28;20199;-76
2021/05/15 01:14:11;;;;;;;21.20;15.67;;;;;;;-144.99;nan;52409.38;4982470;28;20248;-78
2021/05/15 01:16:49;;;;;;;20.17;13.80;;;;;;;-144.99;nan;52421.59;4981048;28;20224;-76
2021/05/15 01:19:23;;;;;;;21.33;14.13;;;;;;;-144.99;nan;52411.41;4980923;28;20675;-76
2021/05/15 01:21:58;;;;;;;25.30;14.77;;;;;;;-144.99;nan;52411.41;4981086;28;20319;-76
2021/05/15 01:24:33;;;;;;;21.80;13.37;;;;;;;-144.99;nan;52435.88;4979336;28;20622;-78
2021/05/15 01:27:10;;;;;;;21.47;15.50;;;;;;;-144.99;nan;52378.78;4980144;28;20234;-78
2021/05/15 01:29:46;;;;;;;19.43;13.53;;;;;;;-144.99;nan;52395.09;4984998;28;20204;-79
2021/05/15 01:32:21;;;;;;;23.03;15.47;;;;;;;-144.99;nan;52378.78;4984430;28;20206;-79
2021/05/15 01:34:55;;;;;;;23.20;16.00;;;;;;;-144.99;nan;52419.56;4981825;28;20228;-77
2021/05/15 01:37:31;;;;;;;19.63;12.83;;;;;;;-144.99;nan;52403.25;4978487;28;20215;-77
2021/05/15 01:40:02;;;;;;;19.17;13.00;;;;;;;-144.99;nan;52419.56;4980540;28;20200;-78
2021/05/15 01:42:40;;;;;;;20.70;13.70;;;;;;;-144.99;nan;52354.34;4970768;28;20550;-78
2021/05/15 01:45:15;;;;;;;17.90;13.47;;;;;;;-144.99;nan;52391.03;4972884;28;20236;-78
2021/05/15 01:47:49;;;;;;;20.27;13.67;;;;;;;-144.99;nan;52391.03;4978290;28;20212;-78
2021/05/15 01:50:24;;;;;;;23.03;14.33;;;;;;;-144.99;nan;52415.47;4978170;28;20200;-77
2021/05/15 01:52:59;;;;;;;24.17;17.37;;;;;;;-144.99;nan;52403.25;4982418;28;20217;-79
2021/05/15 01:55:34;;;;;;;18.80;14.00;;;;;;;-144.99;nan;52391.03;4977286;28;20620;-78
2021/05/15 01:58:08;;;;;;;20.90;13.30;;;;;;;-144.99;nan;52423.63;4980539;28;20258;-79
2021/05/15 02:00:45;;;;;;;24.53;15.03;;;;;;;-144.99;nan;52374.72;4982117;28;20300;-78
2021/05/15 02:03:21;;;;;;;19.23;12.50;;;;;;;-144.99;nan;52391.03;4972323;28;20200;-78
2021/05/15 02:05:56;;;;;;;25.57;18.13;;;;;;;-144.99;nan;52384.91;4972211;28;20234;-79
2021/05/15 02:08:32;;;;;;;20.23;12.90;;;;;;;-144.99;nan;52423.63;4971072;28;20196;-77
2021/05/15 02:11:07;;;;;;;18.23;11.93;;;;;;;-144.99;nan;52411.41;4972138;28;20204;-77
2021/05/15 02:13:41;;;;;;;27.67;13.77;;;;;;;-144.99;nan;52403.25;4966363;28;20250;-80
2021/05/15 02:16:15;;;;;;;22.20;13.03;;;;;;;-144.99;nan;52378.78;4971830;28;20286;-79
2021/05/15 02:18:50;;;;;;;18.63;12.13;;;;;;;-144.99;nan;52411.41;4971777;28;20219;-77
2021/05/15 02:21:24;;;;;;;15.77;10.97;;;;;;;-144.99;nan;52407.31;4971753;28;20226;-76
2021/05/15 02:24:00;;;;;;;19.33;11.90;;;;;;;-144.99;nan;52456.25;4971529;28;20199;-77
2021/05/15 02:26:34;;;;;;;14.97;11.13;;;;;;;-144.99;nan;52435.88;4971898;28;20777;-76
2021/05/15 02:29:09;;;;;;;15.30;10.40;;;;;;;-144.99;nan;52452.16;4970723;28;20207;-76
2021/05/15 02:31:40;;;;;;;14.80;10.93;;;;;;;-144.99;nan;52448.09;4970366;28;20204;-76
2021/05/15 02:34:12;;;;;;;13.23;10.03;;;;;;;-144.99;nan;52370.63;4971192;28;20257;-77
2021/05/15 02:36:46;;;;;;;13.90;11.03;;;;;;;-144.99;nan;52431.78;4965855;28;20235;-77
2021/05/15 02:39:22;;;;;;;19.83;10.63;;;;;;;-144.99;nan;52435.88;4970671;28;20214;-77
2021/05/15 02:41:56;;;;;;;18.53;11.30;;;;;;;-144.99;nan;52421.59;4970910;28;20207;-77
2021/05/15 02:44:31;;;;;;;16.40;9.53;;;;;;;-144.99;nan;52419.56;4968647;28;20278;-77
2021/05/15 02:47:05;;;;;;;14.63;11.77;;;;;;;-144.99;nan;52423.63;4971192;28;20669;-77
2021/05/15 02:49:40;;;;;;;20.07;11.33;;;;;;;-144.99;nan;52372.69;4971335;28;20203;-77
2021/05/15 02:52:14;;;;;;;20.53;13.07;;;;;;;-144.99;nan;52386.94;4969317;28;20242;-77
2021/05/15 02:54:49;;;;;;;23.37;12.50;;;;;;;-144.99;nan;52399.19;4970955;28;20227;-77
2021/05/15 02:57:22;;;;;;;17.87;12.87;;;;;;;-144.99;nan;52415.47;4968445;28;20200;-78
2021/05/15 02:59:57;;;;;;;18.93;12.13;;;;;;;-144.99;nan;52386.94;4970903;28;20744;-77
2021/05/15 03:02:31;;;;;;;17.00;11.53;;;;;;;-144.99;nan;52395.09;4970593;28;20204;-76
2021/05/15 03:05:07;;;;;;;19.03;12.30;;;;;;;-144.99;nan;52403.25;4970706;28;20230;-76
2021/05/15 03:07:38;;;;;;;16.87;10.23;;;;;;;-144.99;nan;52399.19;4970435;28;20319;-76
2021/05/15 03:10:13;;;;;;;19.63;12.60;;;;;;;-144.99;nan;52403.25;4970824;28;20274;-76
2021/05/15 03:12:47;;;;;;;15.70;10.53;;;;;;;-144.99;nan;52415.47;4970219;28;20200;-76
2021/05/15 03:15:23;;;;;;;16.17;10.83;;;;;;;-144.99;nan;52419.56;4971113;28;20254;-77
2021/05/15 03:17:57;;;;;;;14.93;10.47;;;;;;;-144.99;nan;52429.75;4970403;28;20219;-76
2021/05/15 03:20:30;;;;;;;16.53;10.30;;;;;;;-144.99;nan;52391.03;4971486;28;20192;-78
2021/05/15 03:23:04;;;;;;;21.17;11.90;;;;;;;-144.99;nan;52468.47;4971866;28;20219;-75
2021/05/15 03:25:39;;;;;;;17.10;11.63;;;;;;;-144.99;nan;52399.19;4972610;28;20231;-77
2021/05/15 03:28:14;;;;;;;20.17;12.30;;;;;;;-144.99;nan;52407.31;4973905;28;20341;-79
2021/05/15 03:30:50;;;;;;;16.00;10.37;;;;;;;-144.99;nan;52401.22;4975490;28;20203;-78
2021/05/15 03:33:24;;;;;;;15.43;9.87;;;;;;;-144.99;nan;52407.31;4971668;28;20573;-75
2021/05/15 03:35:59;;;;;;;14.60;11.03;;;;;;;-144.99;nan;52407.31;4972928;28;20232;-78
2021/05/15 03:38:33;;;;;;;16.70;11.80;;;;;;;-144.99;nan;52439.94;4965254;28;20202;-79
2021/05/15 03:41:08;;;;;;;15.47;9.93;;;;;;;-144.99;nan;52419.56;4971825;28;20219;-78
2021/05/15 03:43:37;;;;;;;13.53;10.70;;;;;;;-144.99;nan;52415.47;4971015;28;20683;-78
2021/05/15 03:46:09;;;;;;;17.27;11.50;;;;;;;-144.99;nan;52425.66;4971301;28;20235;-81
2021/05/15 03:48:43;;;;;;;13.73;10.00;;;;;;;-144.99;nan;52431.78;4972537;28;20471;-79
2021/05/15 03:51:17;;;;;;;17.53;10.50;;;;;;;-144.99;nan;52427.72;4976352;28;20195;-79
2021/05/15 03:53:52;;;;;;;17.03;11.10;;;;;;;-144.99;nan;52382.88;4975684;28;20231;-78
2021/05/15 03:56:27;;;;;;;15.53;9.70;;;;;;;-144.99;nan;52395.09;5002256;23;20246;-74
2021/05/15 03:59:02;;;;;;;14.33;9.83;;;;;;;-144.99;nan;52411.41;4985687;28;20207;-73
2021/05/15 04:01:36;;;;;;;15.20;9.60;;;;;;;-144.99;nan;52431.78;4992552;28;20218;-75
2021/05/15 04:04:11;;;;;;;13.37;9.60;;;;;;;-144.99;nan;52415.47;4993013;28;20210;-76
2021/05/15 04:06:40;;;;;;;14.90;9.07;;;;;;;-144.99;nan;52399.19;4993480;28;20235;-74
2021/05/15 04:09:11;;;;;;;13.70;8.80;;;;;;;-144.99;nan;52427.72;4992895;28;20581;-75
2021/05/15 04:11:46;;;;;;;19.70;10.50;;;;;;;-144.99;nan;52386.94;4993277;28;20224;-75
2021/05/15 04:14:31;;;;;;;16.67;10.80;;;;;;;-144.99;nan;52415.47;4996678;28;20210;-74
2021/05/15 04:17:16;;;;;;;15.77;10.13;;;;;;;-144.99;nan;52403.25;4993925;28;20224;-75
2021/05/15 04:19:51;;;;;;;18.73;12.03;;;;;;;-144.99;nan;52423.63;5001073;28;20203;-76
2021/05/15 04:22:26;;;;;;;15.00;10.17;;;;;;;-144.99;nan;52395.09;4993633;28;20211;-75
2021/05/15 04:25:00;;;;;;;19.50;11.53;;;;;;;-144.99;nan;52393.06;4996012;28;20203;-76
2021/05/15 04:27:32;;;;;;;16.13;11.67;;;;;;;-144.99;nan;52374.72;4993329;28;20307;-75
2021/05/15 04:30:07;;;;;;;27.67;11.53;;;;;;;-144.99;nan;52444.03;5001026;28;20204;-77
2021/05/15 04:32:41;;;;;;;17.03;11.80;;;;;;;-144.99;nan;52386.94;4993643;28;20211;-75
2021/05/15 04:35:13;;;;;;;15.53;10.57;;;;;;;-144.99;nan;52415.47;4992262;28;20479;-76
2021/05/15 04:37:48;;;;;;;16.27;11.50;;;;;;;-144.99;nan;52399.19;4992270;28;20204;-75
2021/05/15 04:40:23;;;;;;;15.03;10.87;;;;;;;-144.99;nan;52370.63;4985748;28;20200;-74
2021/05/15 04:42:58;;;;;;;19.70;11.10;;;;;;;-144.99;nan;52395.09;4988439;28;20214;-74
2021/05/15 04:45:33;;;;;;;12.87;10.27;;;;;;;-144.99;nan;52382.88;4992015;28;20676;-74
2021/05/15 04:48:07;;;;;;;17.33;10.50;;;;;;;-144.99;nan;52382.88;4992100;28;20206;-74
2021/05/15 04:50:42;;;;;;;20.20;12.60;;;;;;;-144.99;nan;52399.19;4992282;28;20281;-74
2021/05/15 04:53:13;;;;;;;15.00;11.20;;;;;;;-144.99;nan;52378.78;4991408;28;20710;-74
2021/05/15 04:55:48;;;;;;;17.33;11.10;;;;;;;-144.99;nan;52403.25;4987955;28;20228;-74
2021/05/15 04:58:23;;;;;;;17.93;10.97;;;;;;;-144.99;nan;52423.63;4991946;28;20234;-74
2021/05/15 05:00:54;;;;;;;18.20;11.77;;;;;;;-144.99;nan;52403.25;4991144;28;20199;-74
2021/05/15 05:03:26;;;;;;;12.73;9.33;;;;;;;-144.99;nan;52403.25;4991897;28;20206;-75
2021/05/15 05:06:00;;;;;;;15.90;8.47;;;;;;;-144.99;nan;52366.56;4989553;28;20323;-75
2021/05/15 05:08:36;;;;;;;16.40;9.27;;;;;;;-144.99;nan;52407.31;4992738;28;20207;-75
2021/05/15 05:11:10;;;;;;;12.97;9.20;;;;;;;-144.99;nan;52393.06;5000796;28;20253;-73
2021/05/15 05:13:46;;;;;;;13.40;8.90;;;;;;;-144.99;nan;52382.88;4992092;28;20276;-74
2021/05/15 05:16:20;;;;;;;12.13;7.53;;;;;;;-144.99;nan;52403.25;4993310;28;20610;-74
2021/05/15 05:18:55;;;;;;;12.70;8.87;;;;;;;-144.99;nan;52425.66;4990206;28;20199;-75
2021/05/15 05:21:27;;;;;;;9.90;6.43;;;;;;;-144.99;nan;52388.97;4993697;28;20206;-75
2021/05/15 05:24:01;;;;;;;11.07;6.73;;;;;;;-144.99;nan;52439.94;4991509;28;20227;-75
2021/05/15 05:26:36;;;;;;;13.00;8.40;;;;;;;-144.99;nan;52415.47;4991965;28;20234;-74
2021/05/15 05:29:11;;;;;;;10.43;7.70;;;;;;;-144.99;nan;52397.13;4991775;28;20257;-75
2021/05/15 05:31:47;;;;;;;10.73;6.93;;;;;;;-144.99;nan;52370.63;4991712;28;20211;-73
2021/05/15 05:34:22;;;;;;;10.07;7.30;;;;;;;-144.99;nan;52407.31;4991627;28;20577;-75
2021/05/15 05:36:57;;;;;;;12.47;7.60;;;;;;;-144.99;nan;52395.09;4991974;28;20235;-74
2021/05/15 05:39:31;;;;;;;9.80;6.00;;;;;;;-144.99;nan;52391.03;4991090;28;20210;-74
2021/05/15 05:42:06;;;;;;;11.87;6.33;;;;;;;-144.99;nan;52403.25;4991880;28;20276;-73
2021/05/15 05:44:41;;;;;;;10.00;6.50;;;;;;;-144.99;nan;52374.72;4991414;28;20214;-74
2021/05/15 05:47:16;;;;;;;8.77;7.07;;;;;;;-144.99;nan;52344.16;4991254;28;20239;-74
2021/05/15 05:49:50;;;;;;;10.80;6.50;;;;;;;-144.99;nan;52399.19;4991575;28;20217;-75
2021/05/15 05:52:25;;;;;;;8.63;6.63;;;;;;;-144.99;nan;52399.19;4990101;28;20211;-73
2021/05/15 05:54:57;;;;;;;12.17;7.97;;;;;;;-144.99;nan;52395.09;4991330;28;20210;-75
2021/05/15 05:57:31;;;;;;;11.03;7.87;;;;;;;-144.99;nan;52370.63;4990857;28;20238;-72
2021/05/15 06:00:12;;;;;;;13.37;9.17;;;;;;;-144.99;nan;52407.31;4991386;28;20590;-74
2021/05/15 06:02:46;;;;;;;11.83;7.93;;;;;;;-144.99;nan;52386.94;4987500;28;20215;-76
2021/05/15 06:05:21;;;;;;;11.13;7.73;;;;;;;-144.99;nan;52407.31;4991348;28;20214;-75
2021/05/15 06:07:55;;;;;;;12.27;7.87;;;;;;;-144.99;nan;52366.56;4990591;28;20208;-73
2021/05/15 06:10:27;;;;;;;13.23;7.43;;;;;;;-144.99;nan;52399.19;4991072;28;20211;-75
2021/05/15 06:12:59;;;;;;;15.60;8.50;;;;;;;-144.99;nan;52444.03;4990741;28;20199;-74
2021/05/15 06:15:31;;;;;;;15.23;9.37;;;;;;;-144.99;nan;52378.78;4991306;28;20696;-74
2021/05/15 06:18:06;;;;;;;13.00;9.00;;;;;;;-144.99;nan;52427.72;4991489;28;20203;-77
2021/05/15 06:20:38;;;;;;;11.90;8.83;;;;;;;-144.99;nan;52372.69;4992525;28;20210;-77
2021/05/15 06:23:10;;;;;;;14.80;9.57;;;;;;;-144.99;nan;52397.13;4990778;28;20219;-76
2021/05/15 06:25:45;;;;;;;14.17;8.97;;;;;;;-144.99;nan;52435.88;4993332;28;20489;-76
2021/05/15 06:28:19;;;;;;;18.80;10.23;;;;;;;-144.99;nan;52372.69;4993156;28;20257;-77
2021/05/15 06:30:54;;;;;;;16.50;9.07;;;;;;;-144.99;nan;52403.25;4993941;28;20207;-77
2021/05/15 06:33:29;;;;;;;12.03;8.47;;;;;;;-144.99;nan;52391.03;4991075;28;20214;-77
2021/05/15 06:36:03;;;;;;;15.27;10.07;;;;;;;-144.99;nan;52378.78;4990834;28;20277;-76
2021/05/15 06:38:38;;;;;;;16.83;10.80;;;;;;;-144.99;nan;52386.94;4985933;28;20206;-76
2021/05/15 06:41:15;;;;;;;12.70;9.00;;;;;;;-144.99;nan;52423.63;4998801;28;20207;-76
2021/05/15 06:43:51;;;;;;;14.00;7.90;;;;;;;-144.99;nan;52391.03;4992583;28;20202;-76
2021/05/15 06:46:27;;;;;;;14.03;11.20;;;;;;;-144.99;nan;52415.47;4991273;28;20551;-75
2021/05/15 06:48:58;;;;;;;13.13;9.70;;;;;;;-144.99;nan;52415.47;4991829;28;20207;-74
2021/05/15 06:51:33;;;;;;;18.53;9.50;;;;;;;-144.99;nan;52403.25;4992058;28;20196;-75
2021/05/15 06:54:07;;;;;;;17.53;11.47;;;;;;;-144.99;nan;52391.03;4991716;28;20226;-75
2021/05/15 06:56:41;;;;;;;13.47;10.07;;;;;;;-144.99;nan;52444.03;4990718;28;20238;-74
2021/05/15 06:59:10;;;;;;;13.90;9.77;;;;;;;-144.99;nan;52399.19;4997375;28;20211;-77
2021/05/15 07:01:46;;;;;;;13.30;10.07;;;;;;;-144.99;nan;52431.78;4991732;28;20208;-72
2021/05/15 07:04:20;;;;;;;15.57;10.13;;;;;;;-144.99;nan;52382.88;4982465;28;20203;-70
2021/05/15 07:06:51;;;;;;;13.37;9.50;;;;;;;-144.99;nan;52370.63;4990587;28;20231;-71
2021/05/15 07:09:26;;;;;;;15.47;10.40;;;;;;;-144.99;nan;52395.09;4989766;28;20277;-71
2021/05/15 07:12:00;;;;;;;16.90;10.50;;;;;;;-144.99;nan;52386.94;4990343;28;20214;-72
2021/05/15 07:14:35;;;;;;;21.80;10.87;;;;;;;-144.99;nan;52382.88;4989828;28;20211;-72
2021/05/15 07:17:10;;;;;;;13.70;9.50;;;;;;;-144.99;nan;52411.41;4989174;28;20223;-71
2021/05/15 07:19:45;;;;;;;13.07;8.17;;;;;;;-144.99;nan;52391.03;4989829;28;20203;-72
2021/05/15 07:22:22;;;;;;;13.37;8.97;;;;;;;-144.99;nan;52407.31;4989695;28;20222;-70
2021/05/15 07:24:56;;;;;;;13.80;8.40;;;;;;;-144.99;nan;52391.03;4992467;28;20211;-72
2021/05/15 07:27:31;;;;;;;17.80;10.17;;;;;;;-144.99;nan;52378.78;4994147;28;20474;-75
2021/05/15 07:30:08;;;;;;;13.73;9.40;;;;;;;-144.99;nan;52374.72;5003477;28;20204;-77
2021/05/15 07:32:47;;;;;;;18.63;9.70;;;;;;;-144.99;nan;52395.09;4997209;28;20203;-78
2021/05/15 07:35:22;;;;;;;16.60;8.90;;;;;;;-144.99;nan;52403.25;4992905;28;20211;-79
2021/05/15 07:37:51;;;;;;;15.60;10.73;;;;;;;-144.99;nan;52395.09;5001927;28;20207;-83
2021/05/15 07:40:26;;;;;;;12.97;11.57;;;;;;;-144.99;nan;52399.19;5001090;28;20208;-77
2021/05/15 07:43:04;;;;;;;17.23;10.20;;;;;;;-144.99;nan;52435.88;4997596;28;20199;-77
2021/05/15 07:45:38;;;;;;;20.00;11.47;;;;;;;-144.99;nan;52382.88;4997508;28;20219;-77
2021/05/15 07:48:13;;;;;;;13.57;9.50;;;;;;;-144.99;nan;52374.72;5000795;28;20677;-77
2021/05/15 07:50:48;;;;;;;15.73;10.73;;;;;;;-144.99;nan;52386.94;4998756;28;20210;-77
2021/05/15 07:53:23;;;;;;;14.20;11.57;;;;;;;-144.99;nan;52386.94;4994819;28;20206;-78
2021/05/15 07:55:58;;;;;;;15.63;11.13;;;;;;;-144.99;nan;52419.56;4999734;28;20265;-80
2021/05/15 07:58:32;;;;;;;14.97;8.43;;;;;;;-144.99;nan;52395.09;4996882;28;20201;-78
2021/05/15 08:01:07;;;;;;;13.13;8.67;;;;;;;-144.99;nan;52399.19;4998835;28;20218;-78
2021/05/15 08:03:39;;;;;;;14.50;10.30;;;;;;;-144.99;nan;52403.25;4997466;28;20210;-78
2021/05/15 08:06:14;;;;;;;17.80;10.70;;;;;;;-144.99;nan;52393.06;4998695;28;20242;-76
2021/05/15 08:08:54;;;;;;;14.53;10.67;;;;;;;-144.99;nan;52352.28;4998010;28;20206;-78
2021/05/15 08:11:29;;;;;;;14.80;10.57;;;;;;;-144.99;nan;52378.78;5012780;28;20230;-78
2021/05/15 08:14:05;;;;;;;13.30;9.80;;;;;;;-144.99;nan;52407.31;5010811;28;20294;-76
2021/05/15 08:16:37;;;;;;;11.10;9.33;;;;;;;-144.99;nan;52403.25;4995150;28;20227;-77
2021/05/15 08:19:07;;;;;;;21.87;11.53;;;;;;;-144.99;nan;52399.19;4999030;28;20203;-76
2021/05/15 08:21:41;;;;;;;19.83;12.27;;;;;;;-144.99;nan;52395.09;4998785;28;20216;-78
2021/05/15 08:24:14;;;;;;;14.47;11.50;;;;;;;-144.99;nan;52382.88;4998383;28;20286;-80
2021/05/15 08:26:50;;;;;;;15.53;9.83;;;;;;;-144.99;nan;52374.72;4997584;28;20242;-77
2021/05/15 08:29:28;;;;;;;18.43;13.33;;;;;;;-144.99;nan;52427.72;5002892;28;20569;-78
2021/05/15 08:32:04;;;;;;;18.33;12.73;;;;;;;-144.99;nan;52395.09;5002874;28;20582;-78
2021/05/15 08:34:46;;;;;;;15.43;10.40;;;;;;;-144.99;nan;52362.50;5000146;28;20268;-80
2021/05/15 08:37:20;;;;;;;14.17;10.87;;;;;;;-144.99;nan;52378.78;4991262;28;20219;-77
2021/05/15 08:39:57;;;;;;;17.77;11.10;;;;;;;-144.99;nan;52368.59;4999421;28;20720;-76
2021/05/15 08:42:31;;;;;;;16.87;10.70;;;;;;;-144.99;nan;52397.13;4995025;28;20778;-77
2021/05/15 08:45:08;;;;;;;15.93;10.43;;;;;;;-144.99;nan;52391.03;4998789;28;20195;-78
2021/05/15 08:47:43;;;;;;;17.00;11.97;;;;;;;-144.99;nan;52388.97;4995874;28;20310;-77
2021/05/15 08:50:18;;;;;;;16.67;12.10;;;;;;;-144.99;nan;52386.94;5002670;28;20242;-79
2021/05/15 08:53:01;;;;;;;15.67;11.43;;;;;;;-144.99;nan;52399.19;5002229;28;20214;-78
2021/05/15 08:55:46;;;;;;;16.30;11.83;;;;;;;-144.99;nan;52333.94;4997984;28;20311;-78
2021/05/15 08:58:21;;;;;;;16.90;13.27;;;;;;;-144.99;nan;52386.94;4994745;28;20203;-78
2021/05/15 09:00:56;;;;;;;17.17;11.37;;;;;;;-144.99;nan;52415.47;4996176;28;20211;-78
2021/05/15 09:03:31;;;;;;;14.53;9.93;;;;;;;-144.99;nan;52350.25;4995282;28;20203;-76
2021/05/15 09:06:06;;;;;;;20.53;10.70;;;;;;;-144.99;nan;52338.03;4996001;28;20234;-79
2021/05/15 09:08:40;;;;;;;16.77;11.40;;;;;;;-144.99;nan;52374.72;4990334;28;20204;-77
2021/05/15 09:11:15;;;;;;;17.37;11.00;;;;;;;-144.99;nan;52368.59;4997217;28;20572;-78
2021/05/15 09:14:04;;;;;;;16.03;11.03;;;;;;;-144.99;nan;52321.72;5000888;28;20195;-79
2021/05/15 09:16:48;;;;;;;17.17;14.63;;;;;;;-144.99;nan;52338.03;5010878;28;20240;-79
2021/05/15 09:19:21;;;;;;;17.17;12.10;;;;;;;-144.99;nan;52362.50;4997690;28;20220;-77
2021/05/15 09:22:04;;;;;;;13.97;10.67;;;;;;;-144.99;nan;52301.34;5005796;28;20199;-78
2021/05/15 09:24:41;;;;;;;18.20;11.27;;;;;;;-144.99;nan;52356.38;4994377;28;20218;-77
2021/05/15 09:27:13;;;;;;;12.83;9.40;;;;;;;-144.99;nan;52378.78;4998348;28;20745;-77
2021/05/15 09:29:48;;;;;;;16.20;10.80;;;;;;;-144.99;nan;52354.34;5007943;28;20211;-78
2021/05/15 09:32:34;;;;;;;13.60;9.00;;;;;;;-144.99;nan;52305.41;4990226;28;20353;-77
2021/05/15 09:35:11;;;;;;;18.10;10.23;;;;;;;-144.99;nan;52299.31;4998609;28;20211;-78
2021/05/15 09:37:47;;;;;;;21.17;11.57;;;;;;;-144.99;nan;52336.00;4996642;28;20246;-81
2021/05/15 09:43:10;;;;;;;14.23;10.20;;;;;;;-144.99;nan;52354.34;5005994;28;20196;-77
2021/05/15 09:45:43;;;;;;;11.53;9.23;;;;;;;-144.99;nan;52297.25;5002713;28;20310;-80
2021/05/15 09:51:14;;;;;;;16.17;8.43;;;;;;;-144.99;nan;52289.13;4997788;28;20203;-78
2021/05/15 09:53:55;;;;;;;16.13;11.57;;;;;;;-144.99;nan;52370.63;4998670;28;20199;-77
2021/05/15 09:56:36;;;;;;;14.20;9.07;;;;;;;-144.99;nan;52342.09;4992722;28;20236;-80
2021/05/15 09:59:18;;;;;;;13.60;9.67;;;;;;;-144.99;nan;52309.50;4997299;28;20215;-79
2021/05/15 10:01:52;;;;;;;16.43;10.30;;;;;;;-144.99;nan;52289.13;4999369;28;20207;-75
2021/05/15 10:04:37;;;;;;;14.77;11.13;;;;;;;-144.99;nan;52268.72;4997935;28;20207;-79
2021/05/15 10:07:17;;;;;;;15.50;10.43;;;;;;;-144.99;nan;52272.81;4998698;28;20245;-77
2021/05/15 10:09:53;;;;;;;13.77;9.50;;;;;;;-144.99;nan;52256.50;4994683;28;20204;-79
2021/05/15 10:12:27;;;;;;;17.97;10.33;;;;;;;-144.99;nan;52264.66;4993497;28;20422;-78
2021/05/15 10:15:00;;;;;;;16.83;10.27;;;;;;;-144.99;nan;52305.41;5003157;28;20211;-78
2021/05/15 10:17:41;;;;;;;13.53;9.97;;;;;;;-144.99;nan;52268.72;4997793;28;20318;-77
2021/05/15 10:20:16;;;;;;;13.60;10.40;;;;;;;-144.99;nan;52280.97;4998375;28;20208;-78
2021/05/15 10:22:51;;;;;;;13.50;9.40;;;;;;;-144.99;nan;52264.66;4998094;28;20333;-78
2021/05/15 10:25:27;;;;;;;21.70;11.70;;;;;;;-144.99;nan;52268.72;4993432;28;20205;-76
2021/05/15 10:28:07;;;;;;;16.27;10.40;;;;;;;-144.99;nan;52223.88;4996458;28;20242;-78
2021/05/15 10:30:42;;;;;;;13.40;10.90;;;;;;;-144.99;nan;52244.28;4990780;28;20601;-77
2021/05/15 10:33:14;;;;;;;12.63;9.67;;;;;;;-144.99;nan;52227.97;4992792;28;20736;-78
2021/05/15 10:35:51;;;;;;;14.30;10.37;;;;;;;-144.99;nan;52268.72;4995322;28;20721;-74
2021/05/15 10:38:30;;;;;;;13.03;10.03;;;;;;;-144.99;nan;52183.13;4991897;28;20199;-76
2021/05/15 10:41:18;;;;;;;13.70;9.87;;;;;;;-144.99;nan;52189.25;4999533;28;20286;-79
2021/05/15 10:43:55;;;;;;;12.93;9.50;;;;;;;-144.99;nan;52250.38;5003380;28;20225;-80
2021/05/15 10:46:55;;;;;;;14.57;9.80;;;;;;;-144.99;nan;52179.06;5000774;28;20238;-78
2021/05/15 10:49:30;;;;;;;15.50;9.80;;;;;;;-144.99;nan;52219.81;5010634;28;20213;-85
2021/05/15 10:52:14;;;;;;;13.83;9.63;;;;;;;-144.99;nan;52203.50;5008977;28;20229;-80
2021/05/15 10:54:51;;;;;;;18.73;12.07;;;;;;;-144.99;nan;52262.63;4996705;28;20203;-79
2021/05/15 10:57:34;;;;;;;14.53;10.97;;;;;;;-144.99;nan;52146.44;4992729;28;20243;-79
2021/05/15 11:00:11;;;;;;;11.87;10.43;;;;;;;-144.99;nan;52117.91;5000721;28;20218;-78
2021/05/15 11:02:44;;;;;;;18.10;10.60;;;;;;;-144.99;nan;52179.06;5002554;28;20206;-79
2021/05/15 11:05:21;;;;;;;15.53;9.43;;;;;;;-144.99;nan;52170.91;5006388;28;20206;-79
2021/05/15 11:10:43;;;;;;;15.30;11.63;;;;;;;-144.99;nan;52244.28;5003234;28;20218;-79
2021/05/15 11:13:25;;;;;;;13.50;10.93;;;;;;;-144.99;nan;52195.34;5004510;28;20266;-79
2021/05/15 11:16:11;;;;;;;15.17;12.57;;;;;;;-144.99;nan;52223.88;5004989;28;20219;-79
2021/05/15 11:18:46;;;;;;;16.23;10.13;;;;;;;-144.99;nan;52166.81;5009911;28;20196;-80
2021/05/15 11:21:27;;;;;;;24.30;13.60;;;;;;;-144.99;nan;52189.25;5012071;28;20712;-78
2021/05/15 11:24:08;;;;;;;12.20;10.67;;;;;;;-144.99;nan;52146.44;5001647;28;20199;-78
2021/05/15 11:26:49;;;;;;;21.00;10.17;;;;;;;-144.99;nan;52136.25;5003429;28;20227;-79
2021/05/15 11:29:38;;;;;;;12.17;9.47;;;;;;;-144.99;nan;52130.13;5010170;28;20468;-78
2021/05/15 11:32:14;;;;;;;14.30;10.03;;;;;;;-144.99;nan;52227.97;5004765;28;20206;-79
2021/05/15 11:34:56;;;;;;;14.03;9.73;;;;;;;-144.99;nan;52242.22;5005556;28;20500;-78
2021/05/15 11:37:31;;;;;;;14.13;10.37;;;;;;;-144.99;nan;52242.22;4998862;28;20267;-79
2021/05/15 11:40:05;;;;;;;12.63;10.87;;;;;;;-144.99;nan;52219.81;5006766;28;20211;-81
2021/05/15 11:42:39;;;;;;;12.67;8.87;;;;;;;-144.99;nan;52211.66;5005537;28;20274;-78
2021/05/15 11:45:39;;;;;;;15.27;8.90;;;;;;;-144.99;nan;52219.81;5004526;28;20204;-80
2021/05/15 11:48:20;;;;;;;13.63;9.27;;;;;;;-144.99;nan;52293.19;5008324;28;20237;-81
2021/05/15 11:51:09;;;;;;;20.70;9.50;;;;;;;-144.99;nan;52238.16;5001047;28;20239;-78
2021/05/15 11:53:46;;;;;;;10.70;8.03;;;;;;;-144.99;nan;52244.28;5008334;28;20247;-79
2021/05/15 11:56:40;;;;;;;14.17;9.87;;;;;;;-144.99;nan;52219.81;5000021;28;20223;-80
2021/05/15 11:59:20;;;;;;;12.77;9.07;;;;;;;-144.99;nan;52199.44;5004963;28;20204;-78
2021/05/15 12:02:25;;;;;;;15.00;10.37;;;;;;;-144.99;nan;52215.75;5010442;28;20215;-79
2021/05/15 12:05:30;;;;;;;11.63;8.80;;;;;;;-144.99;nan;52256.50;5016033;28;20239;-79
2021/05/15 12:08:20;;;;;;;11.23;9.10;;;;;;;-144.99;nan;52276.88;5017798;28;20298;-82